Friday Harbor, WA (98250)

5:26 PM PDT on September 03, 2015 (GMT -0700)
Ericson | | Change Station
CLOSE
Current Station
Personal Weather Station
Location: Friday Harbor, WA
Elevation: 325 ft
Nearby Weather Stations

Elev 325 ft 48.54 °N, 123.07 °W | Updated 31 seconds ago

Overcast
Overcast
56.1 °F
Feels Like 56.1 °F
N
0.0
Wind Variable Wind from WSW
Gusts 0.0 mph

Today
High -- | Low -- °F
--% Chance of Precip.
Yesterday
High -- | Low -- °F
Precip. -- in
6:32 AM 7:50 PM
Waning Gibbous, 65% visible
Pressure 30.01 in
Visibility 10.0 miles
Clouds Few 4000 ft
Overcast 6000 ft
Dew Point 48 °F
Humidity 75%
Rainfall 0.37 in
Snow Depth Not available.
UV 1.0 out of 12
Pollen .50 out of 12
Air Quality Not available.
Flu Activity Not available.
METAR KFHR 032353Z AUTO VRB03KT 10SM FEW040 OVC060 15/08 A3001 RMK AO2 SLP161 T01500083 10167 20117 55000
Pressure 30.01 in
Visibility 10.0 miles
Clouds Few 4000 ft
Overcast 6000 ft
Dew Point 48 °F
Humidity 75%
Rainfall 0.37 in
Snow Depth Not available.
UV 1.0 out of 12
Pollen .50 out of 12
Air Quality Not available.
Flu Activity Not available.
METAR KFHR 032353Z AUTO VRB03KT 10SM FEW040 OVC060 15/08 A3001 RMK AO2 SLP161 T01500083 10167 20117 55000

10-Day Weather Forecast

×

Almanac

Astronomy

Sep. 03, 2015 Rise Set
Actual Time
Civil Twilight
Nautical Twilight
Astronomical Twilight
Moon
Length of Visible Light
Length of Day
Tomorrow will be .
, % of the Moon is Illuminated

Today's Extremes

State Highs State Lows

Community

WunderPhotos

Upload Photos

1,852,073 photos uploaded!

WunderBlogs® & News

Nearby

Air Quality

  Air Quality AQ Index Pollutant
Not available.

Snow Depth

Station Depth Elevation

Earthquake Activity

City Distance Mag. Time & Date
Minimum magnitude displayed is 2.5.

Coastal Water Temperatures

Place Temperature

Stations

Nearby Weather Stations

Station Location Temp. Windchill Dew Point Humidity Wind Precip. Elev Updated Type